METAR AND TAF INFORMATION
METAR FOR LIBR
ADDS - METARS form results

(2207 UTC 14 April 2021)
Data provider http://aviationweather.gov/metar/data/
 
METAR text: LIBR 142150Z 34012KT CAVOK 11/02 Q1020
Conditions at: LIBR (BRINDISI/CASALE , IT) observed 2150 UTC 14 April 2021
Temperature: 11.0°C (52°F)
Dewpoint: 2.0°C (36°F) [RH = 54%]
Pressure (altimeter): 30.12 inches Hg (1020.0 mb)
Winds: from the NNW (340 degrees) at 14 MPH (12 knots; 6.2 m/s)
Visibility: 6 or more miles (10+ km)
Ceiling: ceiling and visibility are OK
Clouds: unknown
Weather: no significant weather observed at this time

METAR text: LIBR 142120Z 34010KT CAVOK 11/03 Q1020
Conditions at: LIBR (BRINDISI/CASALE , IT) observed 2120 UTC 14 April 2021
Temperature: 11.0°C (52°F)
Dewpoint: 3.0°C (37°F) [RH = 58%]
Pressure (altimeter): 30.12 inches Hg (1020.0 mb)
Winds: from the NNW (340 degrees) at 12 MPH (10 knots; 5.1 m/s)
Visibility: 6 or more miles (10+ km)
Ceiling: ceiling and visibility are OK
Clouds: unknown
Weather: no significant weather observed at this time

Forecast for: LIBR (BRINDISI/CASALE , IT)
Text: TAF LIBR 141700Z 1418/1518 33018G32KT 9999 FEW020
Forecast period: 1800 to 1900 UTC 14 April 2021
Forecast type: FROM: standard forecast or significant change
Winds: from the NNW (330 degrees) at 21 MPH (18 knots; 9.3 m/s)
gusting to 37 MPH (32 knots; 16.5 m/s)
Visibility: 6 or more miles (10+ km)
Ceiling: at least 12,000 feet AGL
Clouds: few clouds at 2000 feet AGL
Weather: no significant weather forecast for this period
Text: BECMG 1419/1421 32010KT
Forecast period: 1900 UTC 14 April 2021 to 1800 UTC 15 April 2021
Forecast type: BECOMING: Conditions expected to become as follows by 2100 UTC 14 April 2021
Winds: from the NW (320 degrees) at 12 MPH (10 knots; 5.1 m/s)
Visibility: 6 or more miles (10+ km)
Ceiling: at least 12,000 feet AGL
Clouds: few clouds at 2000 feet AGL
Weather: no significant weather forecast for this period

 AIRPORT MAP

 RUNWAY INFORMATION
Runway 05 Runway length 6132 ft Runway width 148 ft
Runway elevation 46 ft Runway displaced threshold 0 ft Runway heading 53
Runway 23 Runway length 6132 ft Runway width 148 ft
Runway elevation 13 ft Runway displaced threshold 230 ft Runway heading 233
Runway 13 Runway length 8307 ft Runway width 148 ft
Runway elevation 29 ft Runway displaced threshold 0 ft Runway heading 137
Runway 31 Runway length 8307 ft Runway width 148 ft
Runway elevation 26 ft Runway displaced threshold 0 ft Runway heading 317

 AIRPORT FREQUENCIES
Type APP Name BRINDISI A Frequency 36.365 MHZ
Type APP Name BRINDISI A Frequency 118.4 MHZ
Type GND Name GND Frequency 31.355 MHZ
Type ILS RWY 32 Name Frequency 109.5 MHZ
Type TWR Name BRINDISI T Frequency 118.1 MHZ

 AIRPORT NEAR NAVIGATION AIDS
Type VORTAC Name Brindisi Frequency 113200 KHZ
Type NDB Name Brindisi Frequency 364 KHZ



Powered by Virtual Airlines Manager [v2.6.2]